createdAt,value
2023-01-24T00:01:09.498Z,4.45
2023-01-24T00:03:41.802Z,6.22
2023-01-24T00:06:12.598Z,2.65
2023-01-24T00:08:40.060Z,3.22
2023-01-24T00:11:15.235Z,3.42
2023-01-24T00:13:45.513Z,5.13
2023-01-24T00:16:19.579Z,4.18
2023-01-24T00:20:13.026Z,6.72
2023-01-24T00:22:40.641Z,3.92
2023-01-24T00:25:08.904Z,4.80
2023-01-24T00:27:36.508Z,5.85
2023-01-24T00:30:11.321Z,6.05
2023-01-24T00:32:41.519Z,4.90
2023-01-24T00:35:09.423Z,6.10
2023-01-24T00:37:37.125Z,6.68
2023-01-24T00:40:08.750Z,5.68
2023-01-24T00:42:39.242Z,4.95
2023-01-24T00:45:08.667Z,5.95
2023-01-24T00:47:36.909Z,4.85
2023-01-24T00:50:05.007Z,4.35
2023-01-24T00:52:44.922Z,4.72
2023-01-24T00:55:15.577Z,4.95
2023-01-24T00:57:48.960Z,3.53
2023-01-24T01:00:18.770Z,3.88
2023-01-24T01:02:50.621Z,4.18
2023-01-24T01:05:21.755Z,3.80
2023-01-24T01:07:51.907Z,5.43
2023-01-24T01:10:25.678Z,3.20
2023-01-24T01:12:57.392Z,3.50
2023-01-24T01:15:31.889Z,3.70
2023-01-24T01:18:00.009Z,3.30
2023-01-24T01:20:30.700Z,5.93
2023-01-24T01:23:02.520Z,3.10
2023-01-24T01:25:32.872Z,3.53
2023-01-24T01:28:05.583Z,3.47
2023-01-24T01:30:33.618Z,2.90
2023-01-24T01:33:01.334Z,4.38
2023-01-24T01:35:30.490Z,3.47
2023-01-24T01:38:00.475Z,4.05
2023-01-24T01:40:28.195Z,3.85
2023-01-24T01:42:56.538Z,5.93
2023-01-24T01:45:38.875Z,4.72
2023-01-24T01:48:35.263Z,4.53
2023-01-24T01:51:16.550Z,4.13
2023-01-24T01:54:27.430Z,3.83
2023-01-24T01:57:29.189Z,5.10
2023-01-24T02:00:21.555Z,3.38
2023-01-24T02:03:28.303Z,5.75
2023-01-24T02:06:00.575Z,5.30
2023-01-24T02:08:30.198Z,4.93
2023-01-24T02:11:18.193Z,4.97
2023-01-24T02:14:18.034Z,4.18
2023-01-24T02:17:08.311Z,3.92
2023-01-24T02:19:57.246Z,4.53
2023-01-24T02:23:03.056Z,6.53
2023-01-24T02:25:51.041Z,5.70
2023-01-24T02:28:31.091Z,7.32
2023-01-24T02:31:00.492Z,5.18
2023-01-24T02:33:29.148Z,4.53
2023-01-24T02:36:27.143Z,7.03
2023-01-24T02:39:14.715Z,4.97
2023-01-24T02:44:20.137Z,3.28
2023-01-24T02:46:47.762Z,4.55
2023-01-24T02:49:22.748Z,5.85
2023-01-24T02:52:09.780Z,3.92
2023-01-24T02:54:41.151Z,4.30
2023-01-24T02:57:27.459Z,5.05
2023-01-24T02:59:55.338Z,3.75
2023-01-24T03:02:25.369Z,4.40
2023-01-24T03:04:53.980Z,4.07
2023-01-24T03:07:21.349Z,4.90
2023-01-24T03:09:48.855Z,6.78
2023-01-24T03:12:43.891Z,5.55
2023-01-24T03:15:42.980Z,4.43
2023-01-24T03:18:36.531Z,5.38
2023-01-24T03:21:23.099Z,4.57
2023-01-24T03:24:11.495Z,7.78
2023-01-24T03:27:05.251Z,6.68
2023-01-24T03:29:58.185Z,5.05
2023-01-24T03:32:46.429Z,6.72
2023-01-24T03:35:16.348Z,4.90
2023-01-24T03:38:05.050Z,6.00
2023-01-24T03:40:33.924Z,7.13
2023-01-24T03:43:02.835Z,4.85
2023-01-24T03:45:39.859Z,6.00
2023-01-24T03:48:15.810Z,7.38
2023-01-24T03:51:03.149Z,5.28
2023-01-24T03:53:33.842Z,8.05
2023-01-24T03:56:03.177Z,6.10
2023-01-24T03:58:32.702Z,5.32
2023-01-24T04:01:02.870Z,7.65
2023-01-24T04:03:35.138Z,5.60
2023-01-24T04:08:29.872Z,7.80
2023-01-24T04:10:58.022Z,7.70
2023-01-24T04:13:25.601Z,6.78
2023-01-24T04:15:53.484Z,7.78
2023-01-24T04:18:21.571Z,8.63
2023-01-24T04:20:52.222Z,9.20
2023-01-24T04:23:27.226Z,7.40
2023-01-24T04:25:57.922Z,5.72
2023-01-24T04:28:25.727Z,7.10
2023-01-24T04:31:03.520Z,8.13
2023-01-24T04:33:33.549Z,7.95
2023-01-24T04:36:11.807Z,6.53
2023-01-24T04:38:43.465Z,7.63
2023-01-24T04:41:24.681Z,7.70
2023-01-24T04:44:00.283Z,7.65
2023-01-24T04:46:29.427Z,9.05
2023-01-24T04:49:07.867Z,8.45
2023-01-24T04:51:35.085Z,8.65
2023-01-24T04:54:04.404Z,10.23
2023-01-24T04:56:32.127Z,9.13
2023-01-24T04:59:06.003Z,9.13
2023-01-24T05:01:33.408Z,12.48
2023-01-24T05:04:03.539Z,10.15
2023-01-24T05:09:06.579Z,10.43
2023-01-24T05:11:34.291Z,10.02
2023-01-24T05:14:01.716Z,11.30
2023-01-24T05:16:32.055Z,11.10
2023-01-24T05:19:32.883Z,10.82
2023-01-24T05:22:05.767Z,9.68
2023-01-24T05:24:58.415Z,11.38
2023-01-24T05:27:26.917Z,11.57
2023-01-24T05:29:55.725Z,11.98
2023-01-24T05:32:25.889Z,11.75
2023-01-24T05:34:54.383Z,10.95
2023-01-24T05:37:21.847Z,11.57
2023-01-24T05:40:02.475Z,19.30
2023-01-24T05:42:32.586Z,17.38
2023-01-24T05:45:01.382Z,23.08
2023-01-24T05:47:28.800Z,17.83
2023-01-24T05:49:59.989Z,16.67
2023-01-24T05:52:39.656Z,18.40
2023-01-24T05:55:07.908Z,22.65
2023-01-24T05:57:38.275Z,21.52
2023-01-24T06:00:09.438Z,15.77
2023-01-24T06:02:44.550Z,15.43
2023-01-24T06:05:25.485Z,14.85
2023-01-24T06:08:03.231Z,14.98
2023-01-24T06:10:36.473Z,13.93
2023-01-24T06:13:20.577Z,15.63
2023-01-24T06:15:55.988Z,11.45
2023-01-24T06:18:33.244Z,13.60
2023-01-24T06:21:09.649Z,12.13
2023-01-24T06:23:39.056Z,14.10
2023-01-24T06:26:23.474Z,16.70
2023-01-24T06:31:42.993Z,13.73
2023-01-24T06:34:47.539Z,13.88
2023-01-24T06:38:04.915Z,13.18
2023-01-24T06:40:52.533Z,12.55
2023-01-24T06:43:25.111Z,13.02
2023-01-24T06:45:53.356Z,13.45
2023-01-24T06:48:34.534Z,11.15
2023-01-24T06:51:23.313Z,13.38
2023-01-24T06:53:56.064Z,10.45
2023-01-24T06:57:01.020Z,10.18
2023-01-24T07:00:31.539Z,15.23
2023-01-24T07:03:19.682Z,13.88
2023-01-24T07:06:21.131Z,11.88
2023-01-24T07:08:47.900Z,10.57
2023-01-24T07:11:30.228Z,11.93
2023-01-24T07:14:10.620Z,10.20
2023-01-24T07:20:18.491Z,14.40
2023-01-24T07:23:00.280Z,7.63
2023-01-24T07:26:22.597Z,10.82
2023-01-24T07:29:09.744Z,9.32
2023-01-24T07:31:41.646Z,11.38
2023-01-24T07:34:47.987Z,11.15
2023-01-24T07:45:49.537Z,12.27
2023-01-24T07:48:37.548Z,9.35
2023-01-24T07:54:27.263Z,10.05
2023-01-24T07:57:14.058Z,14.65
2023-01-24T08:03:02.730Z,8.10
2023-01-24T08:06:36.905Z,6.20
2023-01-24T08:09:25.557Z,11.45
2023-01-24T08:21:40.332Z,10.70
2023-01-24T08:24:13.062Z,10.77
2023-01-24T08:26:52.195Z,7.57
2023-01-24T08:29:56.563Z,8.27
2023-01-24T08:33:39.158Z,6.65
2023-01-24T08:36:22.236Z,6.15
2023-01-24T08:39:01.077Z,7.07
2023-01-24T08:41:34.659Z,7.85
2023-01-24T08:46:59.573Z,8.60
2023-01-24T08:49:37.706Z,6.80
2023-01-24T08:52:23.369Z,7.38
2023-01-24T08:55:20.247Z,7.78
2023-01-24T08:57:57.740Z,5.35
2023-01-24T09:00:33.171Z,7.03
2023-01-24T09:03:14.364Z,7.43
2023-01-24T09:07:28.070Z,6.32
2023-01-24T09:09:16.930Z,7.30
2023-01-24T09:12:00.685Z,6.43
2023-01-24T09:15:05.694Z,7.60
2023-01-24T09:17:58.878Z,8.27
2023-01-24T09:21:44.177Z,5.13
2023-01-24T09:24:21.506Z,6.47
2023-01-24T09:26:54.028Z,5.63
2023-01-24T09:29:39.405Z,6.90
2023-01-24T09:32:09.357Z,5.93
2023-01-24T09:34:48.879Z,7.60
2023-01-24T09:37:29.696Z,10.90
2023-01-24T09:40:45.209Z,6.88
2023-01-24T09:44:09.689Z,5.57
2023-01-24T09:47:35.680Z,7.03
2023-01-24T09:50:53.575Z,6.15
2023-01-24T09:57:04.638Z,7.18
2023-01-24T10:03:27.977Z,7.50
2023-01-24T10:06:12.355Z,6.53
2023-01-24T10:12:38.412Z,7.13
2023-01-24T10:16:12.392Z,8.60
2023-01-24T10:20:00.968Z,9.13
2023-01-24T10:23:46.874Z,6.85
2023-01-24T10:27:40.332Z,6.88
2023-01-24T10:33:45.668Z,6.47
2023-01-24T10:36:51.025Z,8.75
2023-01-24T10:40:55.015Z,8.07
2023-01-24T10:43:03.216Z,7.85
2023-01-24T10:54:08.587Z,7.30
2023-01-24T10:57:38.933Z,6.28
2023-01-24T11:00:55.123Z,10.20
2023-01-24T11:04:00.642Z,7.22
2023-01-24T11:07:35.903Z,9.73
2023-01-24T11:10:47.219Z,8.55
2023-01-24T11:17:10.374Z,6.88
2023-01-24T11:23:04.764Z,10.93
2023-01-24T11:27:05.279Z,10.50
2023-01-24T11:33:03.761Z,8.45
2023-01-24T11:36:37.430Z,9.30
2023-01-24T11:39:58.541Z,7.32
2023-01-24T11:42:57.449Z,9.75
2023-01-24T11:49:19.375Z,12.00
2023-01-24T11:52:55.001Z,9.98
2023-01-24T11:55:49.234Z,13.90
2023-01-24T11:59:06.099Z,10.25
2023-01-24T12:02:50.025Z,12.82
2023-01-24T12:05:16.339Z,10.90
2023-01-24T12:08:31.391Z,9.68
2023-01-24T12:11:53.895Z,13.30
2023-01-24T12:18:36.024Z,14.50
2023-01-24T12:21:38.098Z,8.40
2023-01-24T12:28:02.049Z,20.88
2023-01-24T12:30:42.370Z,8.35
2023-01-24T12:33:26.836Z,9.20
2023-01-24T12:36:09.716Z,11.30
2023-01-24T12:38:53.022Z,10.02
2023-01-24T12:41:58.549Z,11.05
2023-01-24T12:45:11.859Z,8.45
2023-01-24T12:48:08.060Z,8.32
2023-01-24T12:51:06.569Z,8.38
2023-01-24T12:57:09.706Z,11.73
2023-01-24T12:59:45.817Z,9.50
2023-01-24T13:03:03.251Z,11.30
2023-01-24T13:05:58.836Z,9.02
2023-01-24T13:08:55.991Z,12.30
2023-01-24T13:14:02.743Z,13.02
2023-01-24T13:16:44.068Z,11.82
2023-01-24T13:19:18.119Z,9.38
2023-01-24T13:22:11.545Z,14.10
2023-01-24T13:28:34.392Z,13.52
2023-01-24T13:31:20.428Z,8.63
2023-01-24T13:34:05.307Z,11.57
2023-01-24T13:37:15.926Z,15.02
2023-01-24T13:39:46.680Z,15.27
2023-01-24T13:42:14.665Z,16.42
2023-01-24T13:44:47.251Z,9.20
2023-01-24T13:47:24.462Z,12.52
2023-01-24T13:49:52.677Z,8.88
2023-01-24T13:52:32.224Z,10.90
2023-01-24T13:55:06.104Z,12.27
2023-01-24T14:00:22.797Z,10.55
2023-01-24T14:03:04.405Z,20.10
2023-01-24T14:05:36.080Z,14.05
2023-01-24T14:08:17.026Z,11.55
2023-01-24T14:11:03.087Z,10.85
2023-01-24T14:13:48.985Z,13.18
2023-01-24T14:16:37.553Z,16.95
2023-01-24T14:19:35.086Z,16.88
2023-01-24T14:22:16.404Z,22.40
2023-01-24T14:25:20.626Z,14.18
2023-01-24T14:28:27.284Z,13.50
2023-01-24T14:30:58.646Z,16.73
2023-01-24T14:33:31.413Z,20.92
2023-01-24T14:36:15.260Z,18.50
2023-01-24T14:38:52.548Z,13.15
2023-01-24T14:41:23.343Z,11.57
2023-01-24T14:44:00.498Z,14.15
2023-01-24T14:46:30.345Z,15.30
2023-01-24T14:49:36.002Z,26.77
2023-01-24T14:52:23.102Z,22.67
2023-01-24T14:54:58.095Z,16.10
2023-01-24T14:57:32.700Z,15.70
2023-01-24T15:00:04.394Z,12.77
2023-01-24T15:02:58.523Z,14.55
2023-01-24T15:05:41.373Z,14.48
2023-01-24T15:08:20.854Z,11.30
2023-01-24T15:11:21.241Z,13.93
2023-01-24T15:14:00.923Z,11.38
2023-01-24T15:16:51.618Z,10.73
2023-01-24T15:19:59.882Z,10.65
2023-01-24T15:22:34.799Z,10.18
2023-01-24T15:25:04.391Z,10.20
2023-01-24T15:27:43.162Z,8.98
2023-01-24T15:30:28.149Z,11.43
2023-01-24T15:33:01.703Z,12.32
2023-01-24T15:36:01.711Z,11.32
2023-01-24T15:38:54.571Z,19.02
2023-01-24T15:42:02.567Z,18.42
2023-01-24T15:44:29.827Z,14.73
2023-01-24T15:47:20.567Z,14.13
2023-01-24T15:50:25.652Z,14.80
2023-01-24T15:53:23.516Z,12.77
2023-01-24T15:55:55.784Z,8.85
2023-01-24T16:01:07.464Z,11.73
2023-01-24T16:03:45.640Z,10.00
2023-01-24T16:06:20.965Z,8.52
2023-01-24T16:09:35.173Z,13.55
2023-01-24T16:11:39.749Z,12.27
2023-01-24T16:14:12.226Z,10.13
2023-01-24T16:16:45.251Z,14.52
2023-01-24T16:19:21.151Z,12.65
2023-01-24T16:22:19.149Z,15.93
2023-01-24T16:24:57.819Z,21.80
2023-01-24T16:27:33.950Z,13.52
2023-01-24T16:30:01.724Z,12.63
2023-01-24T16:32:42.505Z,13.15
2023-01-24T16:35:17.690Z,14.40
2023-01-24T16:37:45.622Z,12.27
2023-01-24T16:40:15.563Z,11.85
2023-01-24T16:42:46.724Z,9.88
2023-01-24T16:45:19.921Z,12.93
2023-01-24T16:47:47.889Z,11.07
2023-01-24T16:50:20.804Z,10.90
2023-01-24T16:53:02.920Z,11.10
2023-01-24T16:55:30.758Z,10.05
2023-01-24T16:57:58.613Z,12.63
2023-01-24T17:00:27.486Z,12.63
2023-01-24T17:03:07.201Z,12.95
2023-01-24T17:05:41.645Z,10.20
2023-01-24T17:08:12.792Z,10.73
2023-01-24T17:10:46.768Z,10.55
2023-01-24T17:13:21.152Z,13.32
2023-01-24T17:16:09.455Z,15.95
2023-01-24T17:18:41.411Z,16.77
2023-01-24T17:21:12.399Z,15.38
2023-01-24T17:23:40.440Z,12.65
2023-01-24T17:26:21.725Z,14.50
2023-01-24T17:28:52.770Z,14.40
2023-01-24T17:31:37.119Z,21.25
2023-01-24T17:34:07.204Z,16.10
2023-01-24T17:36:42.424Z,13.13
2023-01-24T17:39:09.953Z,12.55
2023-01-24T17:41:37.343Z,17.00
2023-01-24T17:44:11.643Z,14.90
2023-01-24T17:46:39.555Z,12.27
2023-01-24T17:49:07.473Z,13.60
2023-01-24T17:51:41.644Z,11.82
2023-01-24T17:54:11.456Z,10.02
2023-01-24T17:56:48.631Z,14.13
2023-01-24T17:59:16.122Z,15.43
2023-01-24T18:01:46.767Z,16.98
2023-01-24T18:04:25.181Z,17.75
2023-01-24T18:06:53.113Z,17.98
2023-01-24T18:09:23.002Z,16.58
2023-01-24T18:11:51.060Z,15.52
2023-01-24T18:14:18.844Z,16.38
2023-01-24T18:16:53.725Z,18.15
2023-01-24T18:19:21.897Z,14.73
2023-01-24T18:21:51.806Z,20.77
2023-01-24T18:24:27.523Z,17.90
2023-01-24T18:26:57.659Z,16.85
2023-01-24T18:29:25.184Z,14.45
2023-01-24T18:31:53.024Z,17.27
2023-01-24T18:34:27.628Z,13.68
2023-01-24T18:36:57.283Z,14.93
2023-01-24T18:39:27.038Z,16.65
2023-01-24T18:41:59.638Z,13.35
2023-01-24T18:44:29.347Z,11.85
2023-01-24T18:47:05.701Z,14.02
2023-01-24T18:49:37.576Z,14.40
2023-01-24T18:52:05.106Z,12.30
2023-01-24T18:54:32.634Z,11.93
2023-01-24T18:57:04.601Z,13.25
2023-01-24T18:59:32.568Z,10.85
2023-01-24T19:02:03.347Z,13.30
2023-01-24T19:04:35.113Z,17.25
2023-01-24T19:07:03.307Z,11.88
2023-01-24T19:09:32.544Z,13.45
2023-01-24T19:12:06.106Z,12.25
2023-01-24T19:14:34.030Z,11.85
2023-01-24T19:17:01.976Z,11.45
2023-01-24T19:19:29.487Z,13.90
2023-01-24T19:22:00.996Z,13.65
2023-01-24T19:24:31.010Z,12.75
2023-01-24T19:27:02.455Z,11.60
2023-01-24T19:29:33.053Z,11.50
2023-01-24T19:32:00.467Z,30.40
2023-01-24T19:34:28.238Z,13.13
2023-01-24T19:36:59.273Z,11.90
2023-01-24T19:39:29.960Z,13.35
2023-01-24T19:41:58.258Z,16.02
2023-01-24T19:44:26.700Z,17.85
2023-01-24T19:46:55.837Z,21.35
2023-01-24T19:49:35.339Z,17.00
2023-01-24T19:52:03.159Z,16.90
2023-01-24T19:54:36.024Z,16.02
2023-01-24T19:57:21.100Z,14.05
2023-01-24T19:59:48.582Z,16.88
2023-01-24T20:02:18.452Z,19.25
2023-01-24T20:04:52.225Z,15.50
2023-01-24T20:07:23.449Z,16.85
2023-01-24T20:09:53.547Z,16.67
2023-01-24T20:12:21.551Z,15.73
2023-01-24T20:14:52.206Z,18.75
2023-01-24T20:20:10.391Z,15.52
2023-01-24T20:22:37.548Z,15.75
2023-01-24T20:25:18.824Z,14.55
2023-01-24T20:27:49.369Z,9.90
2023-01-24T20:30:21.512Z,11.63
2023-01-24T20:32:49.341Z,11.48
2023-01-24T20:35:21.130Z,10.63
2023-01-24T20:37:48.647Z,11.88
2023-01-24T20:40:17.364Z,10.00
2023-01-24T20:42:45.077Z,10.25
2023-01-24T20:45:15.420Z,8.32
2023-01-24T20:47:47.642Z,10.73
2023-01-24T20:52:49.245Z,10.93
2023-01-24T20:55:16.956Z,10.75
2023-01-24T20:57:48.621Z,9.88
2023-01-24T21:00:16.955Z,10.90
2023-01-24T21:02:46.094Z,9.20
2023-01-24T21:05:14.286Z,10.95
2023-01-24T21:07:41.913Z,9.82
2023-01-24T21:10:09.976Z,11.23
2023-01-24T21:12:40.815Z,13.00
2023-01-24T21:15:10.905Z,11.70
2023-01-24T21:17:38.299Z,14.02
2023-01-24T21:20:18.520Z,13.75
2023-01-24T21:22:48.936Z,12.45
2023-01-24T21:25:18.981Z,14.50
2023-01-24T21:27:54.947Z,11.38
2023-01-24T21:30:34.836Z,12.13
2023-01-24T21:33:05.072Z,9.02
2023-01-24T21:35:33.504Z,13.90
2023-01-24T21:38:01.448Z,13.73
2023-01-24T21:40:52.497Z,9.25
2023-01-24T21:43:19.964Z,14.23
2023-01-24T21:45:53.825Z,7.80
2023-01-24T21:48:44.707Z,10.30
2023-01-24T21:51:18.465Z,9.80
2023-01-24T21:54:04.877Z,13.20
2023-01-24T21:57:06.805Z,11.43
2023-01-24T21:59:36.332Z,9.40
2023-01-24T22:02:31.396Z,10.40
2023-01-24T22:05:02.101Z,10.48
2023-01-24T22:10:06.309Z,10.70
2023-01-24T22:12:38.573Z,10.25
2023-01-24T22:17:42.105Z,10.15
2023-01-24T22:20:17.048Z,7.43
2023-01-24T22:23:07.337Z,11.35
2023-01-24T22:28:55.676Z,8.75
2023-01-24T22:31:27.225Z,10.25
2023-01-24T22:33:55.080Z,12.20
2023-01-24T22:36:22.789Z,12.35
2023-01-24T22:38:50.615Z,12.02
2023-01-24T22:41:21.312Z,10.18
2023-01-24T22:43:48.715Z,9.40
2023-01-24T22:46:17.621Z,13.15
2023-01-24T22:48:50.064Z,13.25
2023-01-24T22:51:17.630Z,10.05
2023-01-24T22:53:50.342Z,9.70
2023-01-24T22:56:17.994Z,15.30
2023-01-24T22:58:50.632Z,12.50
2023-01-24T23:01:29.913Z,12.20
2023-01-24T23:04:02.754Z,12.55
2023-01-24T23:06:30.311Z,12.35
2023-01-24T23:08:57.547Z,8.40
2023-01-24T23:11:25.565Z,9.15
2023-01-24T23:14:14.912Z,10.30
2023-01-24T23:16:45.691Z,13.93
2023-01-24T23:19:49.048Z,16.50
2023-01-24T23:22:30.543Z,10.00
2023-01-24T23:25:01.228Z,15.80
2023-01-24T23:27:37.840Z,10.77
2023-01-24T23:30:38.231Z,14.65
2023-01-24T23:33:21.287Z,11.23
2023-01-24T23:35:50.176Z,13.07
2023-01-24T23:38:21.932Z,13.35
2023-01-24T23:40:52.377Z,13.88
2023-01-24T23:43:22.246Z,15.57
2023-01-24T23:45:51.627Z,9.70
2023-01-24T23:48:19.057Z,12.48
2023-01-24T23:51:00.409Z,11.10
2023-01-24T23:53:32.968Z,15.45
2023-01-24T23:56:02.305Z,16.95
2023-01-24T23:58:30.009Z,14.35
